Time;durP1;ratioP1;P1;durP2;ratioP2;P2;SDS_P1;SDS_P2;PMS_P1;PMS_P2;Temp;Humidity;BMP_temperature;BMP_pressure;BME280_temperature;BME280_humidity;BME280_pressure;Samples;Min_cycle;Max_cycle;Signal;HPM_P1;HPM_P2
2020/12/15 00:01:27;;;;;;;19.97;17.47;;;;;;;1.50;100.00;97752.25;4989262;28;20257;-72
2020/12/15 00:03:55;;;;;;;20.70;18.50;;;;;;;1.46;100.00;97753.44;5004810;28;20219;-71
2020/12/15 00:06:23;;;;;;;23.27;19.27;;;;;;;1.38;100.00;97749.59;5006553;28;20482;-74
2020/12/15 00:08:50;;;;;;;22.60;18.20;;;;;;;1.42;100.00;97755.41;4962949;28;20620;-71
2020/12/15 00:11:18;;;;;;;23.80;19.60;;;;;;;1.57;100.00;97746.47;4989146;28;20898;-74
2020/12/15 00:13:48;;;;;;;21.90;19.43;;;;;;;1.63;100.00;97733.91;5001152;28;20232;-71
2020/12/15 00:16:18;;;;;;;23.87;19.73;;;;;;;1.48;100.00;97749.72;4991069;28;20754;-74
2020/12/15 00:18:45;;;;;;;22.27;19.87;;;;;;;1.36;100.00;97753.25;4998624;28;20216;-71
2020/12/15 00:21:19;;;;;;;25.37;20.60;;;;;;;1.47;100.00;97747.25;5004141;28;20418;-74
2020/12/15 00:23:48;;;;;;;23.70;20.87;;;;;;;1.51;100.00;97744.28;4987272;28;20208;-71
2020/12/15 00:26:15;;;;;;;23.77;19.57;;;;;;;1.21;100.00;97743.00;4975817;28;20216;-74
2020/12/15 00:28:42;;;;;;;23.13;20.63;;;;;;;1.22;100.00;97733.38;5006356;28;20228;-71
2020/12/15 00:31:10;;;;;;;24.20;19.90;;;;;;;1.10;100.00;97725.50;4999896;28;20606;-74
2020/12/15 00:33:37;;;;;;;24.03;19.77;;;;;;;1.11;100.00;97721.94;4989067;28;20571;-74
2020/12/15 00:36:04;;;;;;;24.70;20.63;;;;;;;1.09;100.00;97717.75;5002249;28;20357;-74
2020/12/15 00:38:31;;;;;;;26.47;21.47;;;;;;;1.03;100.00;97719.06;5007547;28;20739;-74
2020/12/15 00:41:00;;;;;;;26.23;21.67;;;;;;;1.02;100.00;97712.16;4948029;28;20571;-72
2020/12/15 00:43:27;;;;;;;27.50;22.13;;;;;;;1.10;100.00;97711.59;5004601;28;20543;-74
2020/12/15 00:45:54;;;;;;;24.60;20.67;;;;;;;1.16;100.00;97713.78;4998553;28;20543;-71
2020/12/15 00:48:22;;;;;;;25.53;21.83;;;;;;;1.27;100.00;97718.19;4986981;28;20271;-74
2020/12/15 00:50:49;;;;;;;25.13;20.87;;;;;;;1.30;100.00;97731.03;5000864;28;20242;-71
2020/12/15 00:53:16;;;;;;;23.53;20.53;;;;;;;1.26;100.00;97724.38;5005585;28;20208;-74
2020/12/15 00:55:43;;;;;;;23.63;21.03;;;;;;;1.28;100.00;97717.25;4962204;28;21035;-73
2020/12/15 00:58:11;;;;;;;25.00;22.20;;;;;;;1.07;100.00;97714.44;4989848;28;20240;-74
2020/12/15 01:00:42;;;;;;;25.63;22.63;;;;;;;1.05;100.00;97711.94;4985791;28;20701;-73
2020/12/15 01:03:09;;;;;;;29.33;22.33;;;;;;;0.98;100.00;97706.31;4990136;28;20452;-72
2020/12/15 01:05:36;;;;;;;25.97;22.03;;;;;;;0.95;100.00;97716.97;5000595;28;20239;-71
2020/12/15 01:08:04;;;;;;;26.57;22.27;;;;;;;1.10;100.00;97715.03;5006346;28;20732;-74
2020/12/15 01:10:32;;;;;;;25.80;22.20;;;;;;;1.23;100.00;97730.66;4970983;28;20452;-71
2020/12/15 01:12:59;;;;;;;26.00;21.53;;;;;;;1.12;100.00;97726.22;4979614;28;20522;-72
2020/12/15 01:15:27;;;;;;;28.00;21.90;;;;;;;1.27;100.00;97721.66;4996602;28;20205;-71
2020/12/15 01:17:54;;;;;;;26.73;21.67;;;;;;;1.25;100.00;97713.09;4985010;28;20597;-73
2020/12/15 01:20:21;;;;;;;25.83;22.77;;;;;;;1.31;100.00;97719.63;4997390;28;20233;-71
2020/12/15 01:22:48;;;;;;;25.53;21.93;;;;;;;1.33;100.00;97720.38;4998128;28;20494;-74
2020/12/15 01:25:15;;;;;;;24.70;21.17;;;;;;;1.14;100.00;97708.66;4999046;28;20589;-74
2020/12/15 01:27:42;;;;;;;31.50;24.03;;;;;;;1.11;100.00;97711.50;4944565;28;20747;-74
2020/12/15 01:30:10;;;;;;;27.20;21.97;;;;;;;1.26;100.00;97716.53;5001224;28;20766;-72
2020/12/15 01:32:38;;;;;;;26.30;21.53;;;;;;;1.16;100.00;97721.59;5001510;28;20350;-71
2020/12/15 01:35:06;;;;;;;29.57;22.37;;;;;;;1.13;100.00;97712.22;4986621;28;20595;-74
2020/12/15 01:37:33;;;;;;;24.50;21.83;;;;;;;1.26;100.00;97716.53;4999040;28;20327;-71
2020/12/15 01:40:00;;;;;;;24.73;21.90;;;;;;;1.29;100.00;97718.91;5000730;28;20203;-74
2020/12/15 01:42:28;;;;;;;25.70;22.07;;;;;;;1.28;100.00;97720.72;4947252;28;20294;-71
2020/12/15 01:44:56;;;;;;;25.40;20.20;;;;;;;1.29;100.00;97724.97;4998752;28;20218;-74
2020/12/15 01:47:23;;;;;;;26.70;22.43;;;;;;;1.29;100.00;97719.75;4998634;28;20220;-71
2020/12/15 01:49:53;;;;;;;25.10;21.63;;;;;;;1.25;100.00;97720.94;4982002;28;20895;-73
2020/12/15 01:52:21;;;;;;;27.07;22.97;;;;;;;1.12;100.00;97712.31;5001234;28;20209;-71
2020/12/15 01:54:48;;;;;;;24.70;21.50;;;;;;;1.25;100.00;97707.88;5004280;28;20308;-73
2020/12/15 01:57:15;;;;;;;28.30;22.17;;;;;;;1.17;100.00;97712.00;4967068;28;20228;-73
2020/12/15 01:59:42;;;;;;;25.10;21.50;;;;;;;1.16;100.00;97721.59;4988849;28;20474;-74
2020/12/15 02:02:09;;;;;;;24.00;21.00;;;;;;;1.15;100.00;97718.16;5002815;28;20233;-74
2020/12/15 02:04:37;;;;;;;28.20;22.33;;;;;;;1.21;100.00;97718.66;4980984;28;20247;-71
2020/12/15 02:07:05;;;;;;;27.03;22.17;;;;;;;1.13;100.00;97713.97;4997039;28;20468;-74
2020/12/15 02:09:33;;;;;;;27.60;23.27;;;;;;;1.08;100.00;97713.47;4994588;28;20573;-71
2020/12/15 02:12:00;;;;;;;25.87;21.83;;;;;;;1.00;100.00;97706.22;4997189;28;20217;-74
2020/12/15 02:14:28;;;;;;;26.77;22.40;;;;;;;1.24;100.00;97703.59;4962065;28;20216;-71
2020/12/15 02:16:55;;;;;;;26.40;23.33;;;;;;;1.22;100.00;97704.66;4998674;28;20434;-73
2020/12/15 02:19:23;;;;;;;27.00;22.37;;;;;;;1.02;100.00;97701.72;5004810;28;20589;-71
2020/12/15 02:21:54;;;;;;;28.17;21.67;;;;;;;0.96;100.00;97717.84;4984676;28;20318;-74
2020/12/15 02:24:21;;;;;;;25.80;21.50;;;;;;;0.95;100.00;97726.59;5008334;28;20776;-72
2020/12/15 02:26:48;;;;;;;27.90;22.87;;;;;;;0.94;100.00;97715.31;5003308;28;20568;-74
2020/12/15 02:29:16;;;;;;;26.23;21.63;;;;;;;0.99;100.00;97717.59;4969010;28;20217;-74
2020/12/15 02:31:43;;;;;;;25.07;21.00;;;;;;;0.98;100.00;97723.78;4997031;28;20673;-74
2020/12/15 02:34:11;;;;;;;26.53;22.27;;;;;;;1.13;100.00;97714.81;5000799;28;20424;-74
2020/12/15 02:36:40;;;;;;;27.10;23.47;;;;;;;1.05;100.00;97719.78;4982342;28;20339;-71
2020/12/15 02:39:09;;;;;;;28.10;22.27;;;;;;;1.09;100.00;97716.00;5002241;28;20212;-72
2020/12/15 02:41:36;;;;;;;24.77;21.20;;;;;;;1.15;100.00;97712.94;4992478;28;20230;-71
2020/12/15 02:44:05;;;;;;;27.50;21.20;;;;;;;1.13;100.00;97714.81;5002294;28;20209;-73
2020/12/15 02:46:32;;;;;;;27.23;22.07;;;;;;;1.23;100.00;97711.53;4963098;28;20597;-71
2020/12/15 02:49:25;;;;;;;26.00;22.20;;;;;;;1.36;100.00;97719.31;4998050;28;20803;-73
2020/12/15 02:51:52;;;;;;;27.00;21.83;;;;;;;1.41;100.00;97720.66;4984949;28;20232;-71
2020/12/15 02:54:20;;;;;;;22.93;19.97;;;;;;;1.44;100.00;97723.03;5003400;28;20416;-73
2020/12/15 02:56:47;;;;;;;25.93;21.90;;;;;;;1.45;100.00;97726.47;5005299;28;20246;-71
2020/12/15 02:59:14;;;;;;;24.80;21.43;;;;;;;1.54;100.00;97732.78;5000159;28;20208;-73
2020/12/15 03:01:43;;;;;;;24.67;21.73;;;;;;;1.54;100.00;97725.81;4974350;28;20236;-73
2020/12/15 03:04:11;;;;;;;25.63;20.83;;;;;;;1.44;100.00;97723.03;5004013;28;20783;-73
2020/12/15 03:06:39;;;;;;;24.13;20.27;;;;;;;1.35;100.00;97723.72;4987711;28;20301;-71
2020/12/15 03:09:07;;;;;;;25.20;22.17;;;;;;;1.26;100.00;97720.00;5001183;28;20309;-73
2020/12/15 03:11:35;;;;;;;26.53;21.97;;;;;;;1.20;100.00;97719.59;4999844;28;20343;-73
2020/12/15 03:14:03;;;;;;;27.67;21.43;;;;;;;1.25;100.00;97723.53;4996663;28;20215;-71
2020/12/15 03:16:30;;;;;;;24.57;20.33;;;;;;;1.26;100.00;97733.03;4962118;28;20244;-72
2020/12/15 03:18:57;;;;;;;23.80;20.97;;;;;;;1.29;100.00;97734.59;5001038;28;20391;-71
2020/12/15 03:21:25;;;;;;;26.53;21.50;;;;;;;1.29;100.00;97727.59;5003810;28;20216;-73
2020/12/15 03:23:52;;;;;;;24.80;20.30;;;;;;;1.34;100.00;97734.25;4986883;28;20213;-70
2020/12/15 03:26:19;;;;;;;25.97;22.37;;;;;;;1.49;100.00;97727.06;4998928;28;20205;-73
2020/12/15 03:28:47;;;;;;;26.10;20.57;;;;;;;1.54;100.00;97738.00;5004994;28;20212;-71
2020/12/15 03:31:14;;;;;;;24.73;20.57;;;;;;;1.37;100.00;97737.50;4986819;28;20320;-73
2020/12/15 03:33:42;;;;;;;24.60;20.43;;;;;;;1.43;100.00;97737.03;4962019;28;20221;-73
2020/12/15 03:36:09;;;;;;;25.27;21.03;;;;;;;1.53;100.00;97738.97;4997011;28;20205;-74
2020/12/15 03:38:36;;;;;;;24.87;21.70;;;;;;;1.38;100.00;97740.91;4988691;28;20213;-73
2020/12/15 03:41:03;;;;;;;25.03;21.47;;;;;;;1.29;100.00;97734.59;4994535;28;20209;-68
2020/12/15 03:43:30;;;;;;;25.63;21.37;;;;;;;1.33;100.00;97717.78;5001895;28;20288;-73
2020/12/15 03:45:58;;;;;;;23.97;19.83;;;;;;;1.40;100.00;97737.25;4998150;28;20646;-70
2020/12/15 03:48:26;;;;;;;23.23;19.73;;;;;;;1.44;100.00;97741.31;4959348;28;20697;-72
2020/12/15 03:50:54;;;;;;;27.00;22.43;;;;;;;1.37;100.00;97727.03;4990832;28;20279;-71
2020/12/15 03:53:21;;;;;;;24.77;21.10;;;;;;;1.44;100.00;97722.19;5004566;28;20228;-73
2020/12/15 03:55:48;;;;;;;25.33;21.53;;;;;;;1.39;100.00;97726.91;4989721;28;20565;-71
2020/12/15 03:58:15;;;;;;;24.07;20.87;;;;;;;1.44;100.00;97727.41;5004014;28;20434;-73
2020/12/15 04:00:43;;;;;;;26.37;21.07;;;;;;;1.40;100.00;97724.22;5006828;28;20201;-73
2020/12/15 04:03:11;;;;;;;23.67;20.23;;;;;;;1.40;100.00;97724.22;4999082;28;20668;-71
2020/12/15 04:05:39;;;;;;;27.07;19.90;;;;;;;1.43;100.00;97730.97;4956627;28;20213;-71
2020/12/15 04:08:06;;;;;;;26.73;21.53;;;;;;;1.58;100.00;97739.44;4993523;28;20595;-74
2020/12/15 04:10:33;;;;;;;27.03;21.13;;;;;;;1.59;100.00;97749.81;4986977;28;20585;-73
2020/12/15 04:13:00;;;;;;;25.53;19.80;;;;;;;1.74;100.00;97731.31;5002277;28;20409;-71
2020/12/15 04:15:27;;;;;;;24.30;21.03;;;;;;;1.62;100.00;97743.50;4986881;28;20196;-73
2020/12/15 04:17:54;;;;;;;26.43;20.87;;;;;;;1.79;100.00;97736.19;4999899;28;20708;-71
2020/12/15 04:20:22;;;;;;;25.37;21.23;;;;;;;1.69;100.00;97721.19;4966573;28;20724;-73
2020/12/15 04:22:49;;;;;;;25.03;20.47;;;;;;;1.69;100.00;97723.81;5002918;28;20319;-71
2020/12/15 04:25:16;;;;;;;26.93;22.30;;;;;;;1.77;100.00;97732.88;4988584;28;20286;-74
2020/12/15 04:27:43;;;;;;;24.80;20.27;;;;;;;1.66;100.00;97724.03;4995956;28;20340;-72
2020/12/15 04:30:11;;;;;;;24.03;18.73;;;;;;;1.61;100.00;97713.09;4996535;28;20402;-73
2020/12/15 04:32:39;;;;;;;24.10;20.33;;;;;;;1.53;100.00;97698.03;5002056;28;20620;-70
2020/12/15 04:35:06;;;;;;;25.50;20.53;;;;;;;1.52;100.00;97713.78;4957647;28;21482;-73
2020/12/15 04:37:34;;;;;;;24.00;19.77;;;;;;;1.91;100.00;97735.28;5007717;28;20251;-72
2020/12/15 04:40:02;;;;;;;27.50;20.83;;;;;;;1.92;100.00;97747.38;4985517;28;20621;-70
2020/12/15 04:42:29;;;;;;;26.67;20.97;;;;;;;1.94;100.00;97744.69;5003004;28;20393;-73
2020/12/15 04:44:56;;;;;;;25.10;20.17;;;;;;;1.88;100.00;97725.06;4998855;28;20208;-71
2020/12/15 04:47:27;;;;;;;24.60;21.07;;;;;;;1.81;100.00;97742.97;5002963;28;20315;-73
2020/12/15 04:49:59;;;;;;;26.07;19.93;;;;;;;1.85;100.00;97735.75;4998952;28;20548;-71
2020/12/15 04:52:38;;;;;;;24.03;19.43;;;;;;;1.79;100.00;97733.59;4968147;28;20208;-73
2020/12/15 04:55:05;;;;;;;25.40;19.63;;;;;;;1.77;100.00;97733.69;4998965;28;20265;-73
2020/12/15 04:57:34;;;;;;;26.67;20.60;;;;;;;1.64;100.00;97732.94;4992626;28;20383;-73
2020/12/15 05:00:03;;;;;;;25.67;19.77;;;;;;;1.85;100.00;97743.56;4999071;28;20587;-71
2020/12/15 05:02:30;;;;;;;26.97;21.03;;;;;;;1.87;100.00;97736.47;5006072;28;20327;-72
2020/12/15 05:04:59;;;;;;;29.97;22.27;;;;;;;1.92;100.00;97736.13;4996176;28;20282;-72
2020/12/15 05:07:26;;;;;;;25.60;19.97;;;;;;;1.92;100.00;97726.47;4968993;28;20697;-73
2020/12/15 05:09:55;;;;;;;24.73;19.80;;;;;;;1.84;100.00;97721.00;4998529;28;20216;-70
2020/12/15 05:12:23;;;;;;;26.20;20.77;;;;;;;1.96;100.00;97729.72;4988631;28;21619;-69
2020/12/15 05:14:51;;;;;;;27.67;20.30;;;;;;;1.85;100.00;97709.59;4999294;28;20216;-72
2020/12/15 05:17:24;;;;;;;22.97;19.30;;;;;;;1.72;100.00;97714.91;5000317;28;20252;-72
2020/12/15 05:19:52;;;;;;;25.33;20.43;;;;;;;1.94;100.00;97724.59;4997581;28;20604;-71
2020/12/15 05:22:19;;;;;;;24.13;19.33;;;;;;;1.99;100.00;97722.44;4968119;28;21122;-73
2020/12/15 05:24:47;;;;;;;25.67;19.40;;;;;;;2.00;100.00;97733.75;5003088;28;20243;-71
2020/12/15 05:27:29;;;;;;;26.23;21.63;;;;;;;1.94;100.00;97721.97;4991243;28;20457;-71
2020/12/15 05:30:07;;;;;;;24.00;19.33;;;;;;;1.73;100.00;97713.97;5004182;28;20632;-72
2020/12/15 05:32:37;;;;;;;29.10;21.20;;;;;;;1.84;100.00;97715.78;4984244;28;20221;-73
2020/12/15 05:35:08;;;;;;;27.83;21.13;;;;;;;2.01;100.00;97730.19;5001007;28;20607;-72
2020/12/15 05:37:35;;;;;;;28.43;21.43;;;;;;;1.92;100.00;97725.66;4959998;28;20995;-71
2020/12/15 05:40:04;;;;;;;28.13;22.50;;;;;;;1.97;100.00;97732.19;4998459;28;20211;-73
2020/12/15 05:42:32;;;;;;;23.93;20.07;;;;;;;2.03;100.00;97733.50;4989635;28;20437;-71
2020/12/15 05:45:00;;;;;;;25.50;20.00;;;;;;;2.11;100.00;97727.72;4999526;28;20300;-73
2020/12/15 05:47:27;;;;;;;26.47;20.03;;;;;;;2.14;100.00;97730.09;4995861;28;20473;-72
2020/12/15 05:49:56;;;;;;;23.40;19.33;;;;;;;1.89;100.00;97729.34;4986773;28;20212;-71
2020/12/15 05:52:26;;;;;;;25.50;19.57;;;;;;;2.14;100.00;97720.44;4969656;28;20605;-72
2020/12/15 05:55:05;;;;;;;28.70;20.47;;;;;;;1.85;100.00;97726.09;4991816;28;20203;-72
2020/12/15 05:57:33;;;;;;;25.13;20.73;;;;;;;1.92;100.00;97734.31;4982787;28;20807;-72
2020/12/15 06:00:10;;;;;;;26.83;20.60;;;;;;;1.96;100.00;97722.69;5003280;28;20249;-73
2020/12/15 06:02:39;;;;;;;26.63;20.47;;;;;;;1.98;100.00;97712.13;4998527;28;20225;-70
2020/12/15 06:05:06;;;;;;;27.20;21.60;;;;;;;1.85;100.00;97709.59;4986677;28;20257;-74
2020/12/15 06:07:34;;;;;;;24.73;20.00;;;;;;;1.78;100.00;97685.72;4962008;28;21295;-72
2020/12/15 06:10:04;;;;;;;25.97;21.60;;;;;;;1.91;100.00;97684.81;4998640;28;20209;-73
2020/12/15 06:12:31;;;;;;;27.57;21.40;;;;;;;1.87;100.00;97676.34;5000887;28;20236;-73
2020/12/15 06:14:59;;;;;;;28.07;21.27;;;;;;;1.93;100.00;97657.59;4985943;28;20231;-73
2020/12/15 06:17:27;;;;;;;27.20;21.00;;;;;;;1.90;100.00;97633.47;5001569;28;20224;-71
2020/12/15 06:19:57;;;;;;;24.10;19.30;;;;;;;2.00;100.00;97616.94;5002479;28;20510;-73
2020/12/15 06:22:25;;;;;;;26.70;20.43;;;;;;;2.06;100.00;97599.13;4999210;28;20228;-71
2020/12/15 06:24:56;;;;;;;28.63;22.47;;;;;;;1.90;100.00;97618.63;4965226;28;20710;-71
2020/12/15 06:27:31;;;;;;;27.67;20.57;;;;;;;1.91;100.00;97654.25;4995511;28;20355;-71
2020/12/15 06:29:59;;;;;;;32.07;22.73;;;;;;;1.94;100.00;97608.78;4982087;28;20259;-72
2020/12/15 06:32:27;;;;;;;30.97;21.50;;;;;;;1.93;100.00;97605.31;4998977;28;20223;-72
2020/12/15 06:34:55;;;;;;;29.93;21.97;;;;;;;2.07;100.00;97619.94;5002776;28;20211;-72
2020/12/15 06:37:24;;;;;;;31.40;22.47;;;;;;;2.10;100.00;97630.16;4994353;28;20239;-71
2020/12/15 06:39:55;;;;;;;36.90;22.90;;;;;;;2.07;100.00;97642.59;4961617;28;20320;-73
2020/12/15 06:42:23;;;;;;;31.33;20.53;;;;;;;1.85;100.00;97662.56;4997683;28;20216;-71
2020/12/15 06:45:04;;;;;;;33.47;23.10;;;;;;;1.75;100.00;97664.22;5001014;28;21448;-73
2020/12/15 06:47:32;;;;;;;28.13;21.33;;;;;;;1.79;100.00;97687.38;4986177;28;20728;-73
2020/12/15 06:50:10;;;;;;;31.70;22.27;;;;;;;1.71;100.00;97716.72;5002285;28;20201;-73
2020/12/15 06:52:38;;;;;;;29.10;20.93;;;;;;;1.79;100.00;97708.28;4999543;28;20231;-72
2020/12/15 06:55:05;;;;;;;27.27;20.83;;;;;;;1.76;100.00;97725.97;4996892;28;20213;-72
2020/12/15 06:57:33;;;;;;;28.77;21.13;;;;;;;1.78;100.00;97724.09;4966781;28;20520;-72
2020/12/15 07:00:04;;;;;;;28.17;21.53;;;;;;;1.73;100.00;97732.25;5002325;28;20269;-73
2020/12/15 07:02:32;;;;;;;28.27;21.23;;;;;;;1.71;100.00;97737.63;4989222;28;20477;-74
2020/12/15 07:05:19;;;;;;;29.43;21.47;;;;;;;1.62;100.00;97751.34;5004131;28;20208;-73
2020/12/15 07:07:47;;;;;;;29.57;22.93;;;;;;;1.61;100.00;97754.91;5002180;28;20232;-73
2020/12/15 07:10:15;;;;;;;28.10;21.67;;;;;;;1.66;100.00;97758.00;5003106;28;20631;-71
2020/12/15 07:12:43;;;;;;;31.23;23.30;;;;;;;1.70;100.00;97772.50;4964223;28;20216;-73
2020/12/15 07:15:13;;;;;;;29.03;21.20;;;;;;;1.62;100.00;97780.06;4999465;28;20308;-72
2020/12/15 07:17:48;;;;;;;36.27;26.53;;;;;;;1.71;100.00;97768.97;4991355;28;20707;-72
2020/12/15 07:20:15;;;;;;;32.27;23.63;;;;;;;1.77;100.00;97774.69;5002530;28;20223;-71
2020/12/15 07:22:43;;;;;;;27.63;21.80;;;;;;;1.74;100.00;97765.28;5001867;28;20352;-73
2020/12/15 07:25:11;;;;;;;27.37;22.37;;;;;;;1.88;100.00;97774.69;5005450;28;20211;-71
2020/12/15 07:27:39;;;;;;;29.10;21.73;;;;;;;1.79;100.00;97767.56;4968483;28;20270;-72
2020/12/15 07:30:08;;;;;;;28.93;22.47;;;;;;;1.98;100.00;97767.00;4999501;28;20216;-72
2020/12/15 07:32:37;;;;;;;30.43;21.70;;;;;;;1.93;100.00;97766.53;4978187;28;20205;-72
2020/12/15 07:35:07;;;;;;;30.60;22.73;;;;;;;2.14;100.00;97762.28;4998662;28;20426;-72
2020/12/15 07:37:35;;;;;;;36.70;27.87;;;;;;;2.13;100.00;97767.66;5004902;28;20258;-73
2020/12/15 07:40:05;;;;;;;33.43;24.30;;;;;;;2.23;100.00;97772.97;4998823;28;20208;-74
2020/12/15 07:42:32;;;;;;;30.50;22.00;;;;;;;2.22;100.00;97772.16;4964773;28;21415;-73
2020/12/15 07:45:01;;;;;;;30.03;22.83;;;;;;;2.28;100.00;97782.16;5000484;28;20213;-73
2020/12/15 07:47:28;;;;;;;28.10;20.37;;;;;;;2.35;100.00;97790.38;4986856;28;20221;-72
2020/12/15 07:49:56;;;;;;;27.53;22.43;;;;;;;2.51;100.00;97792.66;5007429;28;20255;-76
2020/12/15 07:52:31;;;;;;;31.43;23.97;;;;;;;2.62;100.00;97793.59;5003211;28;20208;-71
2020/12/15 07:55:03;;;;;;;29.53;22.77;;;;;;;2.52;100.00;97801.31;5005180;28;20211;-72
2020/12/15 07:57:32;;;;;;;27.60;21.23;;;;;;;2.54;100.00;97802.03;4998696;28;20232;-73
2020/12/15 08:00:02;;;;;;;25.63;20.23;;;;;;;2.53;100.00;97806.44;4967713;28;20653;-73
2020/12/15 08:02:29;;;;;;;26.93;21.83;;;;;;;2.51;100.00;97797.03;4988076;28;20510;-74
2020/12/15 08:05:08;;;;;;;30.50;23.67;;;;;;;2.25;100.00;97803.31;4996662;28;20450;-73
2020/12/15 08:07:47;;;;;;;30.30;24.03;;;;;;;2.48;100.00;97795.50;5003246;28;20414;-72
2020/12/15 08:10:16;;;;;;;32.67;25.97;;;;;;;2.24;100.00;97783.34;5000425;28;20764;-71
2020/12/15 08:12:43;;;;;;;32.27;24.20;;;;;;;2.19;100.00;97785.47;5003503;28;20205;-73
2020/12/15 08:15:13;;;;;;;31.17;24.83;;;;;;;2.32;100.00;97785.38;4961775;28;20327;-70
2020/12/15 08:17:45;;;;;;;31.80;24.83;;;;;;;2.35;100.00;97789.53;4990183;28;20549;-71
2020/12/15 08:20:15;;;;;;;35.00;24.50;;;;;;;2.31;100.00;97768.03;5001590;28;20213;-70
2020/12/15 08:22:43;;;;;;;32.33;24.37;;;;;;;2.29;100.00;97772.53;5002202;28;20492;-71
2020/12/15 08:25:11;;;;;;;33.90;23.67;;;;;;;2.37;100.00;97780.63;4998746;28;20456;-69
2020/12/15 08:27:49;;;;;;;26.47;22.30;;;;;;;2.54;100.00;97787.19;4998930;28;20391;-71
2020/12/15 08:30:18;;;;;;;26.97;21.43;;;;;;;2.65;100.00;97791.59;4966214;28;20220;-72
2020/12/15 08:32:46;;;;;;;33.53;21.97;;;;;;;2.64;100.00;97791.69;5002112;28;20537;-71
2020/12/15 08:35:14;;;;;;;29.03;21.20;;;;;;;2.67;100.00;97792.31;4988366;28;20209;-70
2020/12/15 08:37:43;;;;;;;26.87;20.53;;;;;;;2.94;100.00;97782.41;5003023;28;20460;-72
2020/12/15 08:40:11;;;;;;;25.37;20.47;;;;;;;2.86;100.00;97786.47;5002241;28;20228;-73
2020/12/15 08:42:43;;;;;;;25.00;20.37;;;;;;;2.84;100.00;97780.53;5007687;28;20616;-73
2020/12/15 08:45:18;;;;;;;28.87;22.03;;;;;;;2.87;100.00;97768.97;4968066;28;20220;-73
2020/12/15 08:47:46;;;;;;;28.50;22.13;;;;;;;2.99;100.00;97785.50;5003259;28;20747;-72
2020/12/15 08:50:16;;;;;;;25.83;20.30;;;;;;;3.15;100.00;97795.59;4990163;28;20319;-72
2020/12/15 08:52:43;;;;;;;28.70;20.43;;;;;;;3.09;100.00;97793.47;5002701;28;20299;-71
2020/12/15 08:55:13;;;;;;;23.47;19.03;;;;;;;3.14;100.00;97792.13;5000750;28;20204;-70
2020/12/15 08:57:40;;;;;;;25.50;19.60;;;;;;;3.07;100.00;97793.56;5004770;28;20362;-71
2020/12/15 09:00:11;;;;;;;28.07;22.03;;;;;;;3.04;100.00;97789.44;4961627;28;20243;-70
2020/12/15 09:02:38;;;;;;;26.37;19.77;;;;;;;3.30;100.00;97790.91;5000967;28;20431;-69
2020/12/15 09:05:07;;;;;;;25.33;20.13;;;;;;;3.51;100.00;97782.25;4988547;28;20466;-73
2020/12/15 09:07:36;;;;;;;25.67;20.13;;;;;;;3.41;100.00;97790.88;5002452;28;20736;-73
2020/12/15 09:10:15;;;;;;;26.40;20.77;;;;;;;3.28;100.00;97788.41;5000047;28;20978;-70
2020/12/15 09:12:48;;;;;;;26.10;21.00;;;;;;;3.40;100.00;97798.84;5000116;28;20315;-70
2020/12/15 09:15:16;;;;;;;25.83;21.03;;;;;;;3.59;100.00;97795.56;4984490;28;20208;-73
2020/12/15 09:17:47;;;;;;;24.93;20.70;;;;;;;3.46;100.00;97793.94;4981410;28;20225;-73
2020/12/15 09:20:27;;;;;;;25.50;20.07;;;;;;;3.58;100.00;97791.28;4992215;28;20205;-72
2020/12/15 09:22:56;;;;;;;23.83;20.43;;;;;;;3.71;100.00;97794.59;5001944;28;20227;-72
2020/12/15 09:25:24;;;;;;;26.87;21.40;;;;;;;3.68;100.00;97794.00;4999057;28;20895;-72
2020/12/15 09:27:51;;;;;;;23.27;19.43;;;;;;;3.48;100.00;97806.94;4999935;28;20386;-71
2020/12/15 09:30:20;;;;;;;25.87;20.43;;;;;;;3.51;100.00;97803.22;4975912;28;20283;-72
2020/12/15 09:32:48;;;;;;;25.00;20.60;;;;;;;3.60;100.00;97792.03;4991602;28;20221;-72
2020/12/15 09:35:22;;;;;;;23.90;19.37;;;;;;;3.62;100.00;97801.41;4988387;28;20216;-71
2020/12/15 09:37:50;;;;;;;26.73;19.50;;;;;;;3.50;100.00;97802.41;5002058;28;20291;-72
2020/12/15 09:40:18;;;;;;;24.30;18.93;;;;;;;3.62;100.00;97800.59;4996852;28;20671;-71
2020/12/15 09:42:45;;;;;;;24.77;18.20;;;;;;;3.51;100.00;97788.34;5005937;28;20228;-72
2020/12/15 09:45:16;;;;;;;22.33;17.80;;;;;;;3.79;100.00;97795.75;4981633;28;20315;-71
2020/12/15 09:47:43;;;;;;;21.87;18.80;;;;;;;3.79;100.00;97803.63;4987825;28;20587;-73
2020/12/15 09:50:13;;;;;;;23.87;17.20;;;;;;;3.88;100.00;97808.94;5001304;28;20209;-71
2020/12/15 09:52:42;;;;;;;21.50;17.67;;;;;;;3.99;100.00;97799.34;4994837;28;20220;-70
2020/12/15 09:55:12;;;;;;;23.73;17.73;;;;;;;3.89;100.00;97794.03;5004085;28;20248;-71
2020/12/15 09:57:41;;;;;;;28.17;20.70;;;;;;;3.62;100.00;97798.78;5003994;28;20438;-70
2020/12/15 10:00:10;;;;;;;22.20;18.47;;;;;;;3.75;100.00;97801.25;4994375;28;20646;-71
2020/12/15 10:02:38;;;;;;;25.00;19.27;;;;;;;3.90;100.00;97814.88;4977473;28;20232;-72
2020/12/15 10:05:10;;;;;;;22.17;18.37;;;;;;;3.83;100.00;97808.50;4999205;28;20213;-71
2020/12/15 10:07:39;;;;;;;20.27;17.80;;;;;;;4.01;100.00;97808.75;4990975;28;20465;-71
2020/12/15 10:10:07;;;;;;;23.57;18.67;;;;;;;4.06;100.00;97808.38;5004927;28;20693;-70
2020/12/15 10:12:46;;;;;;;19.77;16.77;;;;;;;4.11;100.00;97803.56;4998514;28;20204;-70
2020/12/15 10:15:13;;;;;;;23.97;20.27;;;;;;;3.84;100.00;97793.56;4999188;28;20212;-70
2020/12/15 10:17:42;;;;;;;21.37;18.07;;;;;;;3.97;100.00;97802.09;4967808;28;20326;-71
2020/12/15 10:20:10;;;;;;;20.20;17.77;;;;;;;4.01;100.00;97798.28;4997450;28;20722;-71
2020/12/15 10:22:38;;;;;;;21.13;17.47;;;;;;;4.00;100.00;97793.16;4993728;28;20345;-71
2020/12/15 10:25:05;;;;;;;20.80;17.63;;;;;;;3.99;100.00;97802.81;5001492;28;20205;-71
2020/12/15 10:27:32;;;;;;;20.77;17.47;;;;;;;4.00;100.00;97798.38;5000380;28;20258;-70
2020/12/15 10:30:01;;;;;;;21.80;18.43;;;;;;;4.01;100.00;97800.91;5001172;28;20213;-73
2020/12/15 10:32:29;;;;;;;20.27;17.43;;;;;;;4.19;100.00;97823.91;4961421;28;20789;-72
2020/12/15 10:34:56;;;;;;;21.73;17.63;;;;;;;4.11;100.00;97821.94;4996037;28;20719;-72
2020/12/15 10:37:24;;;;;;;19.87;16.90;;;;;;;4.22;100.00;97804.47;4988744;28;20787;-70
2020/12/15 10:39:52;;;;;;;19.67;17.07;;;;;;;4.23;100.00;97816.63;5001242;28;20714;-73
2020/12/15 10:42:19;;;;;;;23.27;18.53;;;;;;;4.37;100.00;97818.94;5003674;28;20205;-71
2020/12/15 10:44:46;;;;;;;20.27;17.33;;;;;;;4.02;100.00;97813.06;5006037;28;20435;-72
2020/12/15 10:47:14;;;;;;;20.43;17.70;;;;;;;4.38;100.00;97810.09;4964361;28;20229;-71
2020/12/15 10:49:41;;;;;;;20.87;17.17;;;;;;;4.45;100.00;97808.59;5001308;28;20200;-72
2020/12/15 10:52:08;;;;;;;21.20;18.50;;;;;;;4.16;100.00;97819.75;5004688;28;20208;-71
2020/12/15 10:54:36;;;;;;;23.03;20.00;;;;;;;4.41;100.00;97822.13;4992753;28;20274;-72
2020/12/15 10:57:02;;;;;;;22.20;17.30;;;;;;;4.32;100.00;97819.31;5005856;28;20371;-71
2020/12/15 10:59:29;;;;;;;20.73;17.40;;;;;;;4.47;100.00;97811.13;5005633;28;20421;-73
2020/12/15 11:01:56;;;;;;;19.87;17.07;;;;;;;4.33;100.00;97820.16;4999566;28;20688;-70
2020/12/15 11:04:24;;;;;;;21.33;17.20;;;;;;;4.47;100.00;97814.56;4964050;28;20291;-70
2020/12/15 11:06:51;;;;;;;18.30;16.17;;;;;;;4.45;100.00;97807.78;5008958;28;20235;-72
2020/12/15 11:09:18;;;;;;;20.33;16.97;;;;;;;4.31;100.00;97806.31;4987765;28;20205;-71
2020/12/15 11:11:49;;;;;;;18.47;15.93;;;;;;;4.43;100.00;97813.16;5006988;28;20926;-73
2020/12/15 11:14:16;;;;;;;19.03;16.13;;;;;;;4.39;100.00;97809.13;5004896;28;20212;-70
2020/12/15 11:17:01;;;;;;;17.80;15.90;;;;;;;4.43;100.00;97813.16;5003441;28;20221;-72
2020/12/15 11:19:29;;;;;;;18.50;16.60;;;;;;;4.66;99.06;97799.88;4969561;28;20212;-72
2020/12/15 11:21:57;;;;;;;19.00;16.30;;;;;;;4.65;98.46;97800.84;5000282;28;20303;-73
2020/12/15 11:24:24;;;;;;;19.53;16.50;;;;;;;4.83;98.90;97802.84;4987458;28;20251;-71